Airport View

Enter AWOS ICAO identifier for current METAR.

ex. KFNL

KCPK 192255Z AUTO 00000KT 10SM CLR 14/10 A3004 RMK AO2 T01400101

19 Oct 2019 23:01

Frequency: 123.675

Phone: 757-421-0252

Other Area AWOS: KNFE - KPVG - KSFQ - KORF

TAF KORF 191720Z 1918/2018 20004KT P6SM SCT100 BKN250 FM200200 12009KT P6SM VCSH OVC060 FM200600 09010KT 6SM -RA OVC040 FM200900 09020G30KT 4SM RA BR OVC010 FM201600 06020G30KT 2SM RA BR OVC007